createdAt,value
2019-03-18T00:01:28.295Z,1.40
2019-03-18T00:03:56.007Z,1.50
2019-03-18T00:06:23.584Z,1.17
2019-03-18T00:08:51.098Z,0.90
2019-03-18T00:11:18.824Z,1.50
2019-03-18T00:13:46.429Z,1.53
2019-03-18T00:16:14.295Z,1.57
2019-03-18T00:18:42.387Z,1.53
2019-03-18T00:21:09.965Z,1.20
2019-03-18T00:23:38.247Z,1.20
2019-03-18T00:26:06.347Z,1.43
2019-03-18T00:28:34.508Z,1.10
2019-03-18T00:31:02.262Z,1.20
2019-03-18T00:33:30.285Z,1.20
2019-03-18T00:35:57.769Z,1.20
2019-03-18T00:38:25.312Z,1.10
2019-03-18T00:40:56.393Z,1.00
2019-03-18T00:43:24.567Z,1.13
2019-03-18T00:45:52.219Z,1.00
2019-03-18T00:48:20.080Z,1.20
2019-03-18T00:50:47.906Z,2.20
2019-03-18T00:53:15.423Z,1.13
2019-03-18T00:55:43.153Z,0.87
2019-03-18T00:58:10.933Z,1.30
2019-03-18T01:00:38.386Z,1.10
2019-03-18T01:03:06.519Z,1.10
2019-03-18T01:05:34.075Z,1.53
2019-03-18T01:08:01.606Z,1.43
2019-03-18T01:10:29.177Z,1.43
2019-03-18T01:12:56.681Z,1.57
2019-03-18T01:15:28.201Z,1.27
2019-03-18T01:17:54.713Z,1.00
2019-03-18T01:20:22.158Z,1.10
2019-03-18T01:22:50.292Z,1.20
2019-03-18T01:25:18.019Z,1.40
2019-03-18T01:27:45.450Z,1.50
2019-03-18T01:30:12.970Z,1.30
2019-03-18T01:32:40.709Z,1.40
2019-03-18T01:35:08.532Z,1.33
2019-03-18T01:37:36.006Z,1.60
2019-03-18T01:40:04.651Z,1.50
2019-03-18T01:42:32.068Z,2.23
2019-03-18T01:44:59.900Z,1.37
2019-03-18T01:47:27.743Z,1.30
2019-03-18T01:49:55.191Z,1.70
2019-03-18T01:52:22.649Z,1.60
2019-03-18T01:54:50.198Z,1.30
2019-03-18T01:57:18.063Z,1.90
2019-03-18T01:59:45.911Z,1.40
2019-03-18T02:02:13.611Z,1.37
2019-03-18T02:04:41.752Z,2.10
2019-03-18T02:07:09.254Z,2.03
2019-03-18T02:09:37.090Z,1.67
2019-03-18T02:12:04.905Z,1.50
2019-03-18T02:14:32.470Z,1.57
2019-03-18T02:17:00.029Z,1.50
2019-03-18T02:19:28.186Z,1.50
2019-03-18T02:21:56.425Z,1.50
2019-03-18T02:24:24.114Z,1.50
2019-03-18T02:26:51.669Z,1.13
2019-03-18T02:29:19.540Z,1.20
2019-03-18T02:31:47.353Z,1.50
2019-03-18T02:34:15.389Z,1.23
2019-03-18T02:36:42.942Z,3.00
2019-03-18T02:39:10.457Z,1.70
2019-03-18T02:41:38.018Z,1.30
2019-03-18T02:44:06.131Z,1.00
2019-03-18T02:46:33.871Z,1.20
2019-03-18T02:49:01.520Z,0.90
2019-03-18T02:51:29.151Z,0.80
2019-03-18T02:53:57.078Z,0.90
2019-03-18T02:56:24.901Z,2.50
2019-03-18T02:58:53.093Z,1.60
2019-03-18T03:01:20.567Z,1.97
2019-03-18T03:03:48.728Z,0.97
2019-03-18T03:06:16.194Z,1.53
2019-03-18T03:14:05.272Z,1.10
2019-03-18T03:16:33.053Z,1.10
2019-03-18T03:19:00.558Z,0.90
2019-03-18T03:21:28.150Z,1.57
2019-03-18T03:23:55.549Z,1.03
2019-03-18T03:26:22.901Z,0.80
2019-03-18T03:28:50.597Z,1.10
2019-03-18T03:31:18.367Z,1.10
2019-03-18T03:33:45.783Z,2.83
2019-03-18T03:36:13.707Z,2.40
2019-03-18T03:38:41.604Z,3.07
2019-03-18T03:41:09.213Z,1.50
2019-03-18T03:43:36.862Z,1.10
2019-03-18T03:46:04.221Z,1.87
2019-03-18T03:48:31.898Z,1.13
2019-03-18T03:50:59.684Z,1.23
2019-03-18T03:53:30.706Z,1.87
2019-03-18T03:55:56.904Z,2.13
2019-03-18T03:58:24.956Z,1.83
2019-03-18T04:00:52.643Z,2.70
2019-03-18T04:03:20.431Z,1.23
2019-03-18T04:05:47.878Z,1.27
2019-03-18T04:08:15.777Z,1.97
2019-03-18T04:10:43.225Z,1.30
2019-03-18T04:13:10.976Z,1.00
2019-03-18T04:15:38.350Z,1.50
2019-03-18T04:18:05.945Z,1.53
2019-03-18T04:20:33.370Z,1.90
2019-03-18T04:23:01.014Z,1.83
2019-03-18T04:25:28.320Z,2.30
2019-03-18T04:27:56.251Z,1.90
2019-03-18T04:30:23.589Z,1.27
2019-03-18T04:32:50.973Z,1.30
2019-03-18T04:35:18.701Z,4.30
2019-03-18T04:37:46.456Z,2.10
2019-03-18T04:40:13.851Z,2.23
2019-03-18T04:42:42.009Z,1.80
2019-03-18T04:45:09.875Z,4.13
2019-03-18T04:47:37.512Z,1.50
2019-03-18T04:50:05.121Z,1.90
2019-03-18T04:52:32.591Z,1.93
2019-03-18T04:55:00.359Z,2.50
2019-03-18T04:57:27.749Z,3.27
2019-03-18T04:59:55.148Z,1.97
2019-03-18T05:02:22.799Z,2.47
2019-03-18T05:04:50.098Z,2.63
2019-03-18T05:07:17.446Z,1.90
2019-03-18T05:09:44.780Z,1.90
2019-03-18T05:12:12.517Z,2.20
2019-03-18T05:14:40.530Z,2.67
2019-03-18T05:17:07.925Z,2.43
2019-03-18T05:19:35.209Z,2.40
2019-03-18T05:22:02.850Z,3.90
2019-03-18T05:24:30.532Z,2.23
2019-03-18T05:26:58.423Z,3.43
2019-03-18T05:29:26.367Z,2.53
2019-03-18T05:31:54.035Z,3.00
2019-03-18T05:34:21.453Z,5.47
2019-03-18T05:36:49.098Z,3.93
2019-03-18T05:39:17.078Z,2.60
2019-03-18T05:41:44.623Z,2.80
2019-03-18T05:44:12.255Z,2.90
2019-03-18T05:46:40.100Z,2.80
2019-03-18T05:49:07.422Z,3.93
2019-03-18T05:51:35.292Z,3.23
2019-03-18T05:54:02.619Z,3.97
2019-03-18T05:56:30.531Z,3.23
2019-03-18T05:58:58.318Z,4.10
2019-03-18T06:01:26.086Z,3.03
2019-03-18T06:03:53.839Z,3.63
2019-03-18T06:06:21.522Z,3.00
2019-03-18T06:08:48.883Z,2.87
2019-03-18T06:11:16.802Z,4.27
2019-03-18T06:13:44.692Z,7.20
2019-03-18T06:16:12.080Z,3.00
2019-03-18T06:18:39.585Z,4.10
2019-03-18T06:21:07.062Z,4.23
2019-03-18T06:23:35.100Z,3.30
2019-03-18T06:26:02.889Z,3.40
2019-03-18T06:28:30.928Z,4.27
2019-03-18T06:30:58.677Z,5.03
2019-03-18T06:33:26.416Z,3.23
2019-03-18T06:35:54.203Z,3.33
2019-03-18T06:38:21.936Z,5.07
2019-03-18T06:40:50.211Z,3.63
2019-03-18T06:43:18.306Z,5.20
2019-03-18T06:45:45.786Z,4.70
2019-03-18T06:48:13.281Z,5.27
2019-03-18T06:50:41.655Z,4.40
2019-03-18T06:53:09.673Z,6.33
2019-03-18T06:55:37.147Z,4.20
2019-03-18T06:58:04.963Z,4.23
2019-03-18T07:00:32.444Z,3.57
2019-03-18T07:03:00.240Z,3.27
2019-03-18T07:05:28.040Z,3.43
2019-03-18T07:07:55.944Z,4.23
2019-03-18T07:10:23.705Z,4.33
2019-03-18T07:12:51.772Z,4.43
2019-03-18T07:15:19.253Z,3.03
2019-03-18T07:17:47.308Z,4.83
2019-03-18T07:20:14.775Z,5.20
2019-03-18T07:22:42.334Z,3.63
2019-03-18T07:25:09.854Z,3.47
2019-03-18T07:27:37.683Z,3.93
2019-03-18T07:30:05.172Z,2.70
2019-03-18T07:32:32.670Z,3.30
2019-03-18T07:35:00.737Z,5.97
2019-03-18T07:37:28.166Z,4.90
2019-03-18T07:39:55.760Z,4.33
2019-03-18T07:42:23.217Z,4.20
2019-03-18T07:44:50.961Z,3.37
2019-03-18T07:47:18.430Z,5.87
2019-03-18T07:49:46.337Z,5.30
2019-03-18T07:52:13.801Z,2.83
2019-03-18T07:54:41.267Z,2.00
2019-03-18T07:57:08.770Z,4.43
2019-03-18T07:59:36.663Z,3.37
2019-03-18T08:02:04.179Z,3.43
2019-03-18T08:04:37.270Z,7.23
2019-03-18T08:07:01.163Z,4.30
2019-03-18T08:09:28.646Z,2.23
2019-03-18T08:11:56.444Z,5.03
2019-03-18T08:14:24.207Z,7.80
2019-03-18T08:16:51.951Z,3.67
2019-03-18T08:19:19.712Z,3.93
2019-03-18T08:21:47.210Z,1.77
2019-03-18T08:24:15.144Z,3.00
2019-03-18T08:26:42.651Z,2.77
2019-03-18T08:29:10.126Z,2.37
2019-03-18T08:31:37.589Z,4.00
2019-03-18T08:34:05.103Z,3.13
2019-03-18T08:36:33.155Z,1.77
2019-03-18T08:39:00.981Z,3.00
2019-03-18T08:41:28.476Z,3.33
2019-03-18T08:43:55.940Z,2.73
2019-03-18T08:46:23.379Z,3.43
2019-03-18T08:48:55.689Z,3.27
2019-03-18T08:51:20.737Z,2.87
2019-03-18T08:53:48.184Z,3.30
2019-03-18T08:56:16.617Z,2.00
2019-03-18T08:58:45.048Z,2.60
2019-03-18T09:01:13.107Z,3.33
2019-03-18T09:03:40.911Z,2.63
2019-03-18T09:06:08.380Z,3.07
2019-03-18T09:08:35.965Z,2.33
2019-03-18T09:11:03.433Z,3.30
2019-03-18T09:13:32.062Z,2.53
2019-03-18T09:15:59.984Z,3.33
2019-03-18T09:18:27.481Z,3.13
2019-03-18T09:20:54.927Z,1.67
2019-03-18T09:23:22.699Z,2.80
2019-03-18T09:25:50.129Z,2.80
2019-03-18T09:28:17.637Z,3.43
2019-03-18T09:30:45.124Z,2.57
2019-03-18T09:33:12.831Z,3.23
2019-03-18T09:35:40.691Z,2.47
2019-03-18T09:38:08.369Z,3.93
2019-03-18T09:40:35.698Z,3.83
2019-03-18T09:43:03.060Z,1.80
2019-03-18T09:45:30.666Z,4.60
2019-03-18T09:47:58.401Z,2.60
2019-03-18T09:50:26.048Z,3.50
2019-03-18T09:52:53.695Z,3.00
2019-03-18T09:55:22.248Z,2.87
2019-03-18T09:57:49.619Z,1.97
2019-03-18T10:00:17.170Z,2.07
2019-03-18T10:02:44.962Z,4.40
2019-03-18T10:05:12.452Z,3.10
2019-03-18T10:07:39.783Z,2.67
2019-03-18T10:10:07.529Z,2.33
2019-03-18T10:12:35.497Z,3.53
2019-03-18T10:15:03.257Z,3.37
2019-03-18T10:17:30.756Z,2.73
2019-03-18T10:19:58.261Z,3.97
2019-03-18T10:22:25.690Z,4.33
2019-03-18T10:24:53.138Z,2.63
2019-03-18T10:27:21.099Z,1.77
2019-03-18T10:29:48.459Z,2.47
2019-03-18T10:32:16.303Z,2.67
2019-03-18T10:34:43.913Z,4.10
2019-03-18T10:37:11.977Z,3.10
2019-03-18T10:39:39.630Z,1.93
2019-03-18T10:42:07.008Z,4.80
2019-03-18T10:44:34.446Z,2.43
2019-03-18T10:47:02.324Z,1.63
2019-03-18T10:49:29.669Z,1.80
2019-03-18T10:51:57.307Z,2.67
2019-03-18T10:54:30.773Z,2.93
2019-03-18T10:56:54.224Z,1.80
2019-03-18T10:59:21.838Z,3.60
2019-03-18T11:01:49.495Z,2.60
2019-03-18T11:04:16.920Z,3.33
2019-03-18T11:06:44.757Z,3.43
2019-03-18T11:09:12.227Z,3.90
2019-03-18T11:11:39.809Z,5.03
2019-03-18T11:14:07.838Z,3.17
2019-03-18T11:16:36.171Z,3.73
2019-03-18T11:19:03.989Z,4.00
2019-03-18T11:21:31.443Z,2.97
2019-03-18T11:23:58.861Z,3.73
2019-03-18T11:26:26.204Z,2.40
2019-03-18T11:28:53.894Z,2.20
2019-03-18T11:31:21.578Z,1.60
2019-03-18T11:33:48.921Z,2.40
2019-03-18T11:36:16.543Z,2.40
2019-03-18T11:38:43.922Z,2.53
2019-03-18T11:41:11.512Z,4.70
2019-03-18T11:43:39.224Z,3.70
2019-03-18T11:46:06.990Z,2.20
2019-03-18T11:48:34.415Z,4.43
2019-03-18T11:51:01.878Z,6.80
2019-03-18T11:53:29.563Z,5.83
2019-03-18T11:55:57.219Z,6.73
2019-03-18T11:58:24.672Z,2.63
2019-03-18T12:00:52.177Z,3.13
2019-03-18T12:03:19.597Z,2.50
2019-03-18T12:05:47.028Z,4.27
2019-03-18T12:08:14.475Z,2.90
2019-03-18T12:10:41.966Z,2.70
2019-03-18T12:13:09.559Z,2.40
2019-03-18T12:15:36.969Z,2.30
2019-03-18T12:18:04.758Z,7.10
2019-03-18T12:20:33.270Z,2.83
2019-03-18T12:23:00.984Z,4.47
2019-03-18T12:25:28.659Z,3.13
2019-03-18T12:27:56.144Z,2.20
2019-03-18T12:30:23.643Z,3.03
2019-03-18T12:32:51.296Z,3.60
2019-03-18T12:35:19.078Z,2.03
2019-03-18T12:37:46.802Z,1.43
2019-03-18T12:40:14.262Z,2.30
2019-03-18T12:42:42.133Z,1.40
2019-03-18T12:45:10.743Z,1.53
2019-03-18T12:47:38.469Z,1.47
2019-03-18T12:50:08.161Z,2.43
2019-03-18T12:52:36.028Z,2.20
2019-03-18T12:55:03.826Z,2.30
2019-03-18T12:57:31.315Z,1.90
2019-03-18T12:59:59.111Z,1.63
2019-03-18T13:02:26.647Z,2.00
2019-03-18T13:04:54.375Z,1.53
2019-03-18T13:07:21.890Z,1.50
2019-03-18T13:09:49.328Z,1.40
2019-03-18T13:12:17.065Z,1.50
2019-03-18T13:14:44.878Z,1.57
2019-03-18T13:17:12.414Z,1.33
2019-03-18T13:19:40.181Z,1.33
2019-03-18T13:22:08.034Z,2.10
2019-03-18T13:24:35.808Z,1.93
2019-03-18T13:27:03.335Z,3.10
2019-03-18T13:29:30.791Z,1.50
2019-03-18T13:31:58.408Z,2.50
2019-03-18T13:34:26.262Z,1.33
2019-03-18T13:36:54.126Z,2.17
2019-03-18T13:39:21.681Z,1.30
2019-03-18T13:41:49.100Z,5.53
2019-03-18T13:44:17.253Z,3.30
2019-03-18T13:46:45.049Z,2.07
2019-03-18T13:49:15.932Z,2.03
2019-03-18T13:51:43.743Z,2.10
2019-03-18T13:54:11.485Z,1.40
2019-03-18T13:56:39.271Z,1.60
2019-03-18T13:59:07.044Z,1.33
2019-03-18T14:01:34.894Z,1.77
2019-03-18T14:04:02.361Z,1.30
2019-03-18T14:06:30.404Z,2.70
2019-03-18T14:08:58.308Z,1.90
2019-03-18T14:11:26.390Z,1.70
2019-03-18T14:13:54.451Z,1.33
2019-03-18T14:16:22.213Z,3.33
2019-03-18T14:18:49.813Z,1.60
2019-03-18T14:21:17.539Z,2.23
2019-03-18T14:23:45.252Z,1.67
2019-03-18T14:26:13.240Z,1.43
2019-03-18T14:28:40.995Z,1.30
2019-03-18T14:31:08.503Z,1.33
2019-03-18T14:33:36.347Z,1.40
2019-03-18T14:36:04.225Z,2.63
2019-03-18T14:38:32.106Z,1.60
2019-03-18T14:40:59.531Z,4.47
2019-03-18T14:43:27.370Z,1.80
2019-03-18T14:45:55.584Z,2.10
2019-03-18T14:48:23.042Z,1.40
2019-03-18T14:50:50.480Z,1.70
2019-03-18T14:53:18.530Z,1.10
2019-03-18T14:55:46.336Z,1.37
2019-03-18T14:58:14.070Z,3.10
2019-03-18T15:00:41.837Z,1.50
2019-03-18T15:03:09.600Z,2.40
2019-03-18T15:05:37.178Z,2.13
2019-03-18T15:08:05.393Z,1.50
2019-03-18T15:10:33.119Z,1.43
2019-03-18T15:13:01.214Z,1.40
2019-03-18T15:15:28.737Z,1.60
2019-03-18T15:17:56.485Z,2.07
2019-03-18T15:20:23.905Z,1.63
2019-03-18T15:22:51.750Z,2.20
2019-03-18T15:25:20.599Z,8.27
2019-03-18T15:27:49.206Z,2.03
2019-03-18T15:30:17.895Z,2.43
2019-03-18T15:32:45.501Z,2.20
2019-03-18T15:35:13.318Z,2.47
2019-03-18T15:37:40.854Z,2.73
2019-03-18T15:40:08.975Z,1.93
2019-03-18T15:42:36.867Z,2.73
2019-03-18T15:45:04.862Z,2.80
2019-03-18T15:47:32.341Z,4.80
2019-03-18T15:50:00.360Z,2.57
2019-03-18T15:52:28.199Z,3.10
2019-03-18T15:54:55.648Z,1.70
2019-03-18T15:57:29.577Z,1.73
2019-03-18T15:59:52.387Z,2.67
2019-03-18T16:02:19.904Z,2.53
2019-03-18T16:04:47.432Z,2.43
2019-03-18T16:07:15.192Z,2.77
2019-03-18T16:09:43.175Z,2.20
2019-03-18T16:12:12.372Z,1.67
2019-03-18T16:14:40.020Z,3.03
2019-03-18T16:17:07.786Z,1.70
2019-03-18T16:19:36.379Z,2.33
2019-03-18T16:22:04.150Z,3.63
2019-03-18T16:24:31.992Z,4.27
2019-03-18T16:26:59.639Z,2.40
2019-03-18T16:29:27.066Z,3.27
2019-03-18T16:31:54.583Z,4.17
2019-03-18T16:34:22.238Z,4.87
2019-03-18T16:36:50.081Z,3.73
2019-03-18T16:39:17.914Z,3.00
2019-03-18T16:41:45.367Z,1.47
2019-03-18T16:44:13.190Z,1.63
2019-03-18T16:46:40.912Z,1.43
2019-03-18T16:49:08.669Z,1.23
2019-03-18T16:51:36.874Z,1.40
2019-03-18T16:54:04.798Z,1.53
2019-03-18T16:56:32.280Z,2.40
2019-03-18T16:58:59.843Z,1.90
2019-03-18T17:01:27.613Z,1.90
2019-03-18T17:03:55.402Z,1.40
2019-03-18T17:06:22.966Z,1.70
2019-03-18T17:08:50.766Z,8.93
2019-03-18T17:11:18.163Z,2.13
2019-03-18T17:13:45.626Z,1.40
2019-03-18T17:16:13.496Z,2.37
2019-03-18T17:18:41.256Z,2.47
2019-03-18T17:21:08.784Z,3.60
2019-03-18T17:23:36.571Z,3.07
2019-03-18T17:26:04.055Z,2.40
2019-03-18T17:28:31.765Z,3.93
2019-03-18T17:30:59.315Z,3.07
2019-03-18T17:33:27.111Z,6.57
2019-03-18T17:35:55.028Z,4.70
2019-03-18T17:38:22.759Z,7.83
2019-03-18T17:40:50.519Z,5.90
2019-03-18T17:43:18.328Z,3.87
2019-03-18T17:45:45.746Z,5.03
2019-03-18T17:48:13.138Z,3.17
2019-03-18T17:50:40.924Z,3.13
2019-03-18T17:53:08.483Z,2.30
2019-03-18T17:55:36.565Z,2.40
2019-03-18T17:58:04.261Z,2.10
2019-03-18T18:00:36.111Z,2.43
2019-03-18T18:03:04.325Z,2.93
2019-03-18T18:05:31.847Z,2.30
2019-03-18T18:07:59.868Z,2.50
2019-03-18T18:10:27.979Z,2.03
2019-03-18T18:12:55.789Z,4.80
2019-03-18T18:15:24.082Z,2.33
2019-03-18T18:17:51.571Z,2.43
2019-03-18T18:20:19.747Z,3.47
2019-03-18T18:22:47.228Z,4.33
2019-03-18T18:25:14.821Z,2.77
2019-03-18T18:27:42.236Z,2.20
2019-03-18T18:30:10.206Z,2.20
2019-03-18T18:32:37.634Z,3.57
2019-03-18T18:35:06.119Z,3.03
2019-03-18T18:37:33.675Z,3.53
2019-03-18T18:40:04.527Z,3.60
2019-03-18T18:42:31.662Z,4.23
2019-03-18T18:44:59.198Z,3.90
2019-03-18T18:47:26.755Z,4.33
2019-03-18T18:49:54.563Z,4.70
2019-03-18T18:52:22.038Z,4.50
2019-03-18T18:54:49.769Z,4.07
2019-03-18T18:57:17.322Z,4.30
2019-03-18T18:59:45.092Z,2.80
2019-03-18T19:02:12.724Z,3.17
2019-03-18T19:04:40.182Z,5.03
2019-03-18T19:07:07.806Z,4.00
2019-03-18T19:09:35.749Z,2.93
2019-03-18T19:12:03.577Z,3.10
2019-03-18T19:14:31.295Z,3.77
2019-03-18T19:16:58.826Z,3.40
2019-03-18T19:19:27.038Z,6.03
2019-03-18T19:21:55.171Z,4.50
2019-03-18T19:24:22.958Z,4.87
2019-03-18T19:26:50.399Z,3.50
2019-03-18T19:29:18.551Z,5.83
2019-03-18T19:31:46.688Z,4.33
2019-03-18T19:34:14.212Z,6.67
2019-03-18T19:36:42.336Z,6.23
2019-03-18T19:39:10.030Z,4.60
2019-03-18T19:41:40.077Z,5.67
2019-03-18T19:44:07.574Z,4.90
2019-03-18T19:46:35.422Z,4.00
2019-03-18T19:49:02.849Z,4.17
2019-03-18T19:51:30.397Z,3.27
2019-03-18T19:53:59.115Z,4.33
2019-03-18T19:56:26.919Z,4.90
2019-03-18T19:58:54.663Z,4.77
2019-03-18T20:01:22.362Z,5.70
2019-03-18T20:03:49.859Z,6.07
2019-03-18T20:06:17.647Z,5.27
2019-03-18T20:08:45.267Z,3.77
2019-03-18T20:11:12.970Z,4.23
2019-03-18T20:13:41.578Z,4.20
2019-03-18T20:16:09.445Z,3.60
2019-03-18T20:18:37.029Z,4.57
2019-03-18T20:21:04.592Z,4.30
2019-03-18T20:23:32.925Z,5.80
2019-03-18T20:26:01.146Z,4.20
2019-03-18T20:28:29.360Z,4.23
2019-03-18T20:30:56.898Z,3.70
2019-03-18T20:33:24.506Z,4.77
2019-03-18T20:35:52.076Z,3.87
2019-03-18T20:38:19.723Z,3.70
2019-03-18T20:40:47.615Z,3.90
2019-03-18T20:43:15.181Z,6.13
2019-03-18T20:45:42.931Z,3.40
2019-03-18T20:48:10.512Z,4.83
2019-03-18T20:50:38.968Z,4.53
2019-03-18T20:53:06.603Z,3.37
2019-03-18T20:55:34.579Z,3.57
2019-03-18T20:58:02.218Z,3.70
2019-03-18T21:00:29.779Z,3.47
2019-03-18T21:02:57.791Z,3.70
2019-03-18T21:05:25.680Z,3.90
2019-03-18T21:07:54.004Z,4.17
2019-03-18T21:10:21.884Z,3.97
2019-03-18T21:12:49.681Z,3.57
2019-03-18T21:15:17.562Z,3.40
2019-03-18T21:17:45.540Z,3.60
2019-03-18T21:20:14.004Z,4.13
2019-03-18T21:22:42.088Z,3.53
2019-03-18T21:25:09.745Z,5.97
2019-03-18T21:27:38.149Z,3.90
2019-03-18T21:30:05.846Z,4.20
2019-03-18T21:32:33.474Z,3.63
2019-03-18T21:35:01.309Z,4.17
2019-03-18T21:37:28.853Z,4.77
2019-03-18T21:39:57.410Z,5.73
2019-03-18T21:42:25.111Z,6.87
2019-03-18T21:44:52.926Z,4.57
2019-03-18T21:47:20.796Z,6.37
2019-03-18T21:49:48.393Z,5.97
2019-03-18T21:52:16.797Z,6.20
2019-03-18T21:54:44.744Z,4.70
2019-03-18T21:57:13.012Z,6.20
2019-03-18T21:59:40.840Z,5.27
2019-03-18T22:02:08.696Z,5.40
2019-03-18T22:04:36.535Z,4.70
2019-03-18T22:07:04.435Z,8.70
2019-03-18T22:09:32.332Z,6.67
2019-03-18T22:12:00.428Z,5.20
2019-03-18T22:14:27.979Z,4.90
2019-03-18T22:16:55.444Z,5.20
2019-03-18T22:19:23.521Z,5.50
2019-03-18T22:21:51.866Z,6.20
2019-03-18T22:24:19.946Z,7.97
2019-03-18T22:26:47.536Z,13.27
2019-03-18T22:29:16.235Z,9.20
2019-03-18T22:31:45.107Z,8.37
2019-03-18T22:34:12.688Z,7.17
2019-03-18T22:36:40.510Z,6.50
2019-03-18T22:39:08.527Z,6.70
2019-03-18T22:41:36.407Z,5.97
2019-03-18T22:44:04.524Z,5.60
2019-03-18T22:46:32.362Z,5.97
2019-03-18T22:49:00.216Z,7.70
2019-03-18T22:51:28.419Z,5.60
2019-03-18T22:53:56.085Z,6.17
2019-03-18T22:56:23.672Z,6.20
2019-03-18T22:58:51.977Z,5.73
2019-03-18T23:01:21.327Z,5.30
2019-03-18T23:03:49.275Z,9.33
2019-03-18T23:06:16.832Z,6.00
2019-03-18T23:08:44.750Z,8.67
2019-03-18T23:11:12.928Z,9.03
2019-03-18T23:13:41.083Z,10.10
2019-03-18T23:16:08.781Z,7.13
2019-03-18T23:18:36.227Z,8.20
2019-03-18T23:21:04.456Z,9.20
2019-03-18T23:23:31.994Z,7.40
2019-03-18T23:25:59.727Z,7.60
2019-03-18T23:28:27.587Z,10.03
2019-03-18T23:30:55.638Z,10.77
2019-03-18T23:33:23.319Z,9.27
2019-03-18T23:35:50.730Z,8.03
2019-03-18T23:38:18.155Z,8.73
2019-03-18T23:40:46.279Z,8.53
2019-03-18T23:43:13.678Z,9.03
2019-03-18T23:45:41.489Z,8.77
2019-03-18T23:48:09.340Z,8.73
2019-03-18T23:50:37.467Z,9.87
2019-03-18T23:53:05.347Z,8.60
2019-03-18T23:55:33.177Z,8.37
2019-03-18T23:58:00.582Z,9.30
